Time;durP1;ratioP1;P1;durP2;ratioP2;P2;SDS_P1;SDS_P2;PMS_P1;PMS_P2;Temp;Humidity;BMP_temperature;BMP_pressure;BME280_temperature;BME280_humidity;BME280_pressure;Samples;Min_cycle;Max_cycle;Signal;HPM_P1;HPM_P2
2023/07/01 00:01:46;;;;;;;1.10;1.10;;;;;;;;;;5037411;28;20262;-56
2023/07/01 00:04:13;;;;;;;1.10;1.10;;;;;;;;;;5033884;28;20204;-56
2023/07/01 00:06:41;;;;;;;1.40;1.40;;;;;;;;;;5040177;28;20316;-56
2023/07/01 00:09:09;;;;;;;2.33;1.30;;;;;;;;;;5039128;28;20200;-56
2023/07/01 00:11:38;;;;;;;1.13;1.13;;;;;;;;;;5040434;28;20960;-57
2023/07/01 00:14:05;;;;;;;1.10;1.10;;;;;;;;;;5035948;28;20261;-56
2023/07/01 00:16:32;;;;;;;1.40;1.27;;;;;;;;;;5041890;28;20205;-56
2023/07/01 00:18:59;;;;;;;1.38;1.27;;;;;;;;;;5045030;28;20203;-56
2023/07/01 00:21:26;;;;;;;1.23;1.23;;;;;;;;;;5042887;28;20314;-56
2023/07/01 00:23:53;;;;;;;1.17;1.05;;;;;;;;;;5036255;28;20228;-56
2023/07/01 00:26:20;;;;;;;1.10;1.10;;;;;;;;;;5046365;28;20215;-55
2023/07/01 00:28:49;;;;;;;3.20;1.27;;;;;;;;;;5038217;28;20223;-57
2023/07/01 00:31:16;;;;;;;1.52;1.33;;;;;;;;;;5037026;28;20212;-57
2023/07/01 00:33:43;;;;;;;1.15;1.15;;;;;;;;;;5036422;28;20208;-56
2023/07/01 00:36:10;;;;;;;1.20;1.20;;;;;;;;;;5035344;28;20199;-57
2023/07/01 00:38:37;;;;;;;1.10;1.10;;;;;;;;;;5037000;28;20219;-56
2023/07/01 00:41:04;;;;;;;1.75;1.20;;;;;;;;;;5035616;28;20196;-55
2023/07/01 00:43:31;;;;;;;1.42;1.33;;;;;;;;;;5034772;28;20232;-56
2023/07/01 00:45:59;;;;;;;1.40;1.40;;;;;;;;;;5036877;28;20299;-55
2023/07/01 00:48:27;;;;;;;1.27;1.27;;;;;;;;;;5035661;28;20204;-56
2023/07/01 00:50:54;;;;;;;1.30;1.30;;;;;;;;;;5038643;28;20204;-55
2023/07/01 00:53:22;;;;;;;2.05;1.52;;;;;;;;;;5035675;28;20196;-56
2023/07/01 00:55:49;;;;;;;1.75;1.33;;;;;;;;;;5035094;28;20219;-56
2023/07/01 00:58:16;;;;;;;1.42;1.42;;;;;;;;;;5038420;28;20207;-56
2023/07/01 01:00:44;;;;;;;1.30;1.30;;;;;;;;;;5037273;28;20262;-55
2023/07/01 01:03:21;;;;;;;1.65;1.45;;;;;;;;;;5038835;28;20395;-58
2023/07/01 01:05:50;;;;;;;1.20;1.20;;;;;;;;;;5034212;28;20218;-56
2023/07/01 01:08:20;;;;;;;2.30;1.50;;;;;;;;;;5038166;28;20204;-56
2023/07/01 01:10:48;;;;;;;1.58;1.45;;;;;;;;;;5040515;28;20200;-56
2023/07/01 01:13:16;;;;;;;1.30;1.30;;;;;;;;;;5049221;28;20223;-56
2023/07/01 01:15:43;;;;;;;1.27;1.27;;;;;;;;;;5034547;28;20219;-56
2023/07/01 01:18:12;;;;;;;1.38;1.27;;;;;;;;;;5050142;28;20350;-56
2023/07/01 01:20:41;;;;;;;1.20;1.20;;;;;;;;;;5043908;28;20640;-56
2023/07/01 01:23:13;;;;;;;4.20;1.30;;;;;;;;;;5047125;28;20663;-58
2023/07/01 01:25:44;;;;;;;1.67;1.67;;;;;;;;;;5030667;28;20239;-56
2023/07/01 01:28:13;;;;;;;1.10;1.10;;;;;;;;;;5042755;28;20211;-56
2023/07/01 01:30:40;;;;;;;2.38;1.30;;;;;;;;;;5049739;28;20674;-56
2023/07/01 01:33:07;;;;;;;1.27;1.27;;;;;;;;;;5049503;28;20203;-56
2023/07/01 01:35:34;;;;;;;1.60;1.40;;;;;;;;;;5030780;28;20675;-56
2023/07/01 01:38:04;;;;;;;1.55;1.48;;;;;;;;;;5045478;28;20216;-55
2023/07/01 01:40:33;;;;;;;1.90;1.42;;;;;;;;;;5049864;28;20214;-56
2023/07/01 01:43:03;;;;;;;1.30;1.30;;;;;;;;;;5049232;28;20224;-56
2023/07/01 01:45:32;;;;;;;1.58;1.20;;;;;;;;;;5049630;28;20234;-55
2023/07/01 01:47:59;;;;;;;1.65;1.45;;;;;;;;;;5049502;28;20200;-56
2023/07/01 01:50:27;;;;;;;1.88;1.77;;;;;;;;;;5049252;28;20211;-56
2023/07/01 01:52:54;;;;;;;1.33;1.33;;;;;;;;;;5048653;28;20196;-56
2023/07/01 01:55:22;;;;;;;1.40;1.40;;;;;;;;;;5049811;28;20218;-56
2023/07/01 01:57:50;;;;;;;1.30;1.20;;;;;;;;;;5049853;28;20212;-56
2023/07/01 02:00:17;;;;;;;2.20;1.73;;;;;;;;;;5048952;28;20208;-56
2023/07/01 02:02:45;;;;;;;1.48;1.25;;;;;;;;;;5049327;28;20235;-56
2023/07/01 02:05:12;;;;;;;1.00;1.00;;;;;;;;;;5049133;28;20199;-56
2023/07/01 02:07:40;;;;;;;1.45;1.35;;;;;;;;;;5048507;28;20204;-56
2023/07/01 02:10:07;;;;;;;1.60;1.60;;;;;;;;;;5049464;28;20661;-56
2023/07/01 02:12:34;;;;;;;1.45;1.45;;;;;;;;;;5049260;28;20621;-56
2023/07/01 02:15:01;;;;;;;1.00;1.00;;;;;;;;;;5048821;28;20225;-56
2023/07/01 02:17:28;;;;;;;1.30;1.30;;;;;;;;;;5048824;28;20214;-56
2023/07/01 02:19:56;;;;;;;1.40;1.40;;;;;;;;;;5049181;28;20692;-56
2023/07/01 02:22:23;;;;;;;1.40;1.27;;;;;;;;;;5048212;28;20216;-56
2023/07/01 02:24:50;;;;;;;4.22;1.70;;;;;;;;;;5048648;28;20208;-56
2023/07/01 02:27:19;;;;;;;1.75;1.42;;;;;;;;;;5049051;28;20200;-56
2023/07/01 02:29:47;;;;;;;1.40;1.30;;;;;;;;;;5049205;28;20211;-56
2023/07/01 02:32:14;;;;;;;1.35;1.35;;;;;;;;;;5048701;28;20231;-56
2023/07/01 02:34:41;;;;;;;1.30;1.30;;;;;;;;;;5048521;28;20208;-56
2023/07/01 02:37:10;;;;;;;1.60;1.40;;;;;;;;;;5048684;28;20246;-56
2023/07/01 02:39:37;;;;;;;1.27;1.27;;;;;;;;;;5049021;28;20726;-56
2023/07/01 02:42:05;;;;;;;1.40;1.40;;;;;;;;;;5048042;28;20281;-56
2023/07/01 02:44:32;;;;;;;1.80;1.38;;;;;;;;;;5044240;28;20254;-56
2023/07/01 02:46:59;;;;;;;1.65;1.55;;;;;;;;;;5047936;28;20207;-56
2023/07/01 02:49:26;;;;;;;1.35;1.25;;;;;;;;;;5048034;28;20893;-56
2023/07/01 02:51:53;;;;;;;2.07;1.40;;;;;;;;;;5034786;28;20236;-56
2023/07/01 02:54:21;;;;;;;1.40;1.35;;;;;;;;;;5046887;28;20720;-56
2023/07/01 02:56:48;;;;;;;1.00;1.00;;;;;;;;;;5047986;28;20208;-55
2023/07/01 02:59:15;;;;;;;1.83;1.73;;;;;;;;;;5047915;28;20214;-56
2023/07/01 03:01:44;;;;;;;1.27;1.27;;;;;;;;;;5047239;28;20422;-56
2023/07/01 03:04:11;;;;;;;2.00;1.50;;;;;;;;;;5047617;28;20232;-56
2023/07/01 03:06:38;;;;;;;2.50;1.30;;;;;;;;;;5047178;28;20207;-56
2023/07/01 03:09:07;;;;;;;3.15;1.73;;;;;;;;;;5047695;28;20764;-56
2023/07/01 03:11:35;;;;;;;1.70;1.33;;;;;;;;;;5047526;28;20311;-56
2023/07/01 03:14:02;;;;;;;1.42;1.33;;;;;;;;;;5047463;28;20220;-56
2023/07/01 03:16:30;;;;;;;1.90;1.80;;;;;;;;;;5048034;28;20211;-56
2023/07/01 03:18:58;;;;;;;1.75;1.42;;;;;;;;;;5047395;28;20237;-56
2023/07/01 03:21:25;;;;;;;1.43;1.43;;;;;;;;;;5047972;28;20250;-56
2023/07/01 03:23:52;;;;;;;1.77;1.67;;;;;;;;;;5047171;28;20285;-56
2023/07/01 03:26:19;;;;;;;2.13;1.65;;;;;;;;;;5047752;28;20669;-56
2023/07/01 03:28:47;;;;;;;2.50;1.60;;;;;;;;;;5047768;28;20212;-56
2023/07/01 03:31:14;;;;;;;1.80;1.80;;;;;;;;;;5047439;28;20212;-55
2023/07/01 03:33:41;;;;;;;1.52;1.52;;;;;;;;;;5047808;28;20242;-56
2023/07/01 03:36:08;;;;;;;1.85;1.85;;;;;;;;;;5046776;28;20203;-56
2023/07/01 03:38:35;;;;;;;1.73;1.55;;;;;;;;;;5047792;28;20215;-56
2023/07/01 03:41:02;;;;;;;1.60;1.50;;;;;;;;;;5047667;28;20203;-56
2023/07/01 03:43:29;;;;;;;1.58;1.48;;;;;;;;;;5047081;28;20723;-57
2023/07/01 03:45:58;;;;;;;4.03;2.10;;;;;;;;;;5047419;28;20219;-56
2023/07/01 03:48:25;;;;;;;1.77;1.67;;;;;;;;;;5046987;28;20246;-57
2023/07/01 03:50:52;;;;;;;2.47;1.90;;;;;;;;;;5047448;28;20262;-56
2023/07/01 03:53:19;;;;;;;1.35;1.35;;;;;;;;;;5047008;28;20196;-56
2023/07/01 03:55:47;;;;;;;1.80;1.70;;;;;;;;;;5046997;28;20215;-56
2023/07/01 03:58:21;;;;;;;3.47;2.10;;;;;;;;;;5046093;28;20290;-56
2023/07/01 04:00:48;;;;;;;2.72;1.60;;;;;;;;;;5047555;28;20233;-56
2023/07/01 04:03:16;;;;;;;1.65;1.60;;;;;;;;;;5046946;28;20231;-56
2023/07/01 04:05:43;;;;;;;1.55;1.45;;;;;;;;;;5045861;28;20215;-56
2023/07/01 04:08:10;;;;;;;1.60;1.60;;;;;;;;;;5044013;28;20210;-56
2023/07/01 04:10:37;;;;;;;1.70;1.60;;;;;;;;;;5047032;28;20273;-56
2023/07/01 04:13:04;;;;;;;1.58;1.48;;;;;;;;;;5046823;28;20203;-56
2023/07/01 04:15:31;;;;;;;1.70;1.70;;;;;;;;;;5046912;28;20282;-56
2023/07/01 04:17:58;;;;;;;1.70;1.60;;;;;;;;;;5047165;28;20780;-56
2023/07/01 04:20:27;;;;;;;1.42;1.42;;;;;;;;;;5046886;28;20203;-56
2023/07/01 04:22:54;;;;;;;2.45;1.83;;;;;;;;;;5046382;28;20238;-56
2023/07/01 04:25:21;;;;;;;1.92;1.80;;;;;;;;;;5046772;28;20207;-56
2023/07/01 04:27:48;;;;;;;2.03;1.90;;;;;;;;;;5046664;28;20211;-56
2023/07/01 04:30:16;;;;;;;2.20;2.10;;;;;;;;;;5046607;28;20591;-56
2023/07/01 04:32:43;;;;;;;1.73;1.73;;;;;;;;;;5046741;28;20425;-56
2023/07/01 04:35:10;;;;;;;2.33;2.15;;;;;;;;;;5045402;28;20211;-56
2023/07/01 04:37:39;;;;;;;2.30;2.08;;;;;;;;;;5046786;28;20204;-56
2023/07/01 04:40:06;;;;;;;2.38;2.17;;;;;;;;;;5046589;28;20211;-56
2023/07/01 04:42:34;;;;;;;2.88;2.10;;;;;;;;;;5046923;28;20224;-56
2023/07/01 04:45:01;;;;;;;3.85;2.20;;;;;;;;;;5046401;28;20235;-56
2023/07/01 04:47:28;;;;;;;3.45;2.00;;;;;;;;;;5045674;28;20345;-56
2023/07/01 04:49:55;;;;;;;2.20;1.98;;;;;;;;;;5046424;28;20199;-56
2023/07/01 04:52:22;;;;;;;2.35;2.20;;;;;;;;;;5036296;28;20231;-56
2023/07/01 04:54:51;;;;;;;2.35;1.75;;;;;;;;;;5043058;28;20200;-56
2023/07/01 04:57:18;;;;;;;1.60;1.60;;;;;;;;;;5030873;28;20211;-56
2023/07/01 04:59:45;;;;;;;2.00;1.90;;;;;;;;;;5046672;28;20207;-56
2023/07/01 05:02:13;;;;;;;2.03;1.92;;;;;;;;;;5045580;28;20265;-57
2023/07/01 05:04:40;;;;;;;2.95;2.20;;;;;;;;;;5045855;28;20250;-56
2023/07/01 05:07:07;;;;;;;2.10;2.00;;;;;;;;;;5045990;28;20208;-56
2023/07/01 05:09:34;;;;;;;2.08;1.98;;;;;;;;;;5045769;28;20223;-56
2023/07/01 05:12:02;;;;;;;3.72;1.88;;;;;;;;;;5045389;28;20211;-56
2023/07/01 05:14:29;;;;;;;1.98;1.88;;;;;;;;;;5046698;28;20339;-57
2023/07/01 05:16:56;;;;;;;1.92;1.75;;;;;;;;;;5046806;28;20216;-55
2023/07/01 05:19:24;;;;;;;1.80;1.70;;;;;;;;;;5046168;28;20242;-56
2023/07/01 05:21:51;;;;;;;3.95;2.05;;;;;;;;;;5046652;28;20709;-56
2023/07/01 05:24:18;;;;;;;2.97;1.60;;;;;;;;;;5046443;28;20712;-58
2023/07/01 05:26:46;;;;;;;1.85;1.83;;;;;;;;;;5045524;28;20211;-57
2023/07/01 05:29:15;;;;;;;3.33;2.05;;;;;;;;;;5045727;28;20208;-58
2023/07/01 05:31:42;;;;;;;1.58;1.40;;;;;;;;;;5046530;28;20291;-58
2023/07/01 05:34:09;;;;;;;3.05;1.85;;;;;;;;;;5045971;28;20200;-59
2023/07/01 05:36:37;;;;;;;1.52;1.52;;;;;;;;;;5046596;28;20207;-58
2023/07/01 05:39:04;;;;;;;1.80;1.70;;;;;;;;;;5045639;28;20210;-59
2023/07/01 05:41:31;;;;;;;1.38;1.38;;;;;;;;;;5046454;28;20199;-59
2023/07/01 05:43:59;;;;;;;3.00;1.70;;;;;;;;;;5049210;28;20227;-59
2023/07/01 05:46:27;;;;;;;1.55;1.52;;;;;;;;;;5048563;28;20229;-58
2023/07/01 05:48:54;;;;;;;3.42;1.55;;;;;;;;;;5039527;28;20549;-57
2023/07/01 05:51:21;;;;;;;1.80;1.48;;;;;;;;;;5050329;28;20216;-58
2023/07/01 05:53:49;;;;;;;4.18;1.45;;;;;;;;;;5033382;28;20720;-58
2023/07/01 05:56:16;;;;;;;1.08;1.08;;;;;;;;;;5042754;28;20207;-58
2023/07/01 05:58:43;;;;;;;1.40;1.40;;;;;;;;;;5049510;28;20219;-58
2023/07/01 06:01:10;;;;;;;1.45;1.35;;;;;;;;;;5050228;28;20211;-58
2023/07/01 06:03:38;;;;;;;2.45;1.20;;;;;;;;;;5049828;28;20203;-59
2023/07/01 06:06:06;;;;;;;3.72;1.30;;;;;;;;;;5040076;28;20208;-58
2023/07/01 06:08:33;;;;;;;7.65;1.40;;;;;;;;;;5041984;28;20215;-58
2023/07/01 06:11:00;;;;;;;1.33;1.23;;;;;;;;;;5044877;28;20215;-58
2023/07/01 06:13:27;;;;;;;1.00;1.00;;;;;;;;;;5048639;28;20234;-58
2023/07/01 06:15:54;;;;;;;1.08;1.00;;;;;;;;;;5046398;28;20557;-58
2023/07/01 06:18:21;;;;;;;3.03;1.08;;;;;;;;;;5039471;28;20219;-58
2023/07/01 06:20:49;;;;;;;1.55;1.45;;;;;;;;;;5044446;28;20196;-58
2023/07/01 06:23:17;;;;;;;1.10;1.10;;;;;;;;;;5039946;28;20214;-58
2023/07/01 06:25:44;;;;;;;1.20;1.20;;;;;;;;;;5039803;28;20326;-58
2023/07/01 06:28:11;;;;;;;1.40;1.30;;;;;;;;;;5042124;28;20232;-58
2023/07/01 06:30:38;;;;;;;1.08;1.02;;;;;;;;;;5042365;28;20205;-58
2023/07/01 06:33:06;;;;;;;1.15;1.08;;;;;;;;;;5040958;28;21085;-58
2023/07/01 06:35:34;;;;;;;1.52;0.80;;;;;;;;;;5048462;28;20592;-58
2023/07/01 06:38:02;;;;;;;1.40;1.30;;;;;;;;;;5046255;28;20207;-57
2023/07/01 06:40:29;;;;;;;0.98;0.98;;;;;;;;;;5037126;28;20211;-58
2023/07/01 06:42:56;;;;;;;0.90;0.90;;;;;;;;;;5048741;28;20709;-58
2023/07/01 06:45:23;;;;;;;1.23;1.13;;;;;;;;;;5048999;28;20239;-59
2023/07/01 06:47:50;;;;;;;1.33;1.00;;;;;;;;;;5048750;28;20204;-58
2023/07/01 06:50:17;;;;;;;1.00;1.00;;;;;;;;;;5048846;28;20533;-58
2023/07/01 06:52:44;;;;;;;0.90;0.90;;;;;;;;;;5048441;28;20215;-59
2023/07/01 06:55:13;;;;;;;1.95;1.20;;;;;;;;;;5044944;28;20630;-59
2023/07/01 06:57:40;;;;;;;1.08;1.08;;;;;;;;;;5045699;28;20208;-58
2023/07/01 07:00:09;;;;;;;0.93;0.93;;;;;;;;;;5048453;28;20720;-59
2023/07/01 07:02:36;;;;;;;0.75;0.75;;;;;;;;;;5038817;28;20281;-59
2023/07/01 07:05:04;;;;;;;0.70;0.70;;;;;;;;;;5047100;28;20705;-59
2023/07/01 07:07:31;;;;;;;1.23;1.10;;;;;;;;;;5048593;28;20649;-59
2023/07/01 07:09:58;;;;;;;1.35;0.77;;;;;;;;;;5048058;28;20200;-59
2023/07/01 07:12:26;;;;;;;0.80;0.80;;;;;;;;;;5047993;28;20196;-59
2023/07/01 07:14:53;;;;;;;1.20;1.10;;;;;;;;;;5048216;28;20211;-58
2023/07/01 07:17:20;;;;;;;1.25;0.90;;;;;;;;;;5047096;28;20207;-58
2023/07/01 07:19:48;;;;;;;0.75;0.75;;;;;;;;;;5043200;28;20217;-58
2023/07/01 07:22:15;;;;;;;0.85;0.85;;;;;;;;;;5035773;28;20200;-59
2023/07/01 07:24:42;;;;;;;1.00;0.80;;;;;;;;;;5043164;28;20224;-59
2023/07/01 07:27:09;;;;;;;1.30;1.20;;;;;;;;;;5048142;28;20215;-59
2023/07/01 07:29:39;;;;;;;1.10;1.00;;;;;;;;;;5039060;28;20280;-59
2023/07/01 07:32:06;;;;;;;1.85;1.30;;;;;;;;;;5045040;28;20204;-59
2023/07/01 07:34:33;;;;;;;1.00;1.00;;;;;;;;;;5036561;28;20212;-59
2023/07/01 07:37:01;;;;;;;1.10;1.10;;;;;;;;;;5043522;28;20215;-59
2023/07/01 07:39:28;;;;;;;0.80;0.80;;;;;;;;;;5037885;28;20258;-59
2023/07/01 07:41:55;;;;;;;1.17;1.15;;;;;;;;;;5047278;28;20681;-59
2023/07/01 07:44:22;;;;;;;1.85;1.00;;;;;;;;;;5047663;28;20239;-59
2023/07/01 07:46:50;;;;;;;1.00;1.00;;;;;;;;;;5046896;28;20210;-58
2023/07/01 07:49:17;;;;;;;1.38;0.80;;;;;;;;;;5039972;28;20630;-58
2023/07/01 07:51:44;;;;;;;1.08;1.00;;;;;;;;;;5047111;28;20876;-60
2023/07/01 07:54:11;;;;;;;2.15;0.90;;;;;;;;;;5045940;28;20199;-61
2023/07/01 07:56:38;;;;;;;0.95;0.68;;;;;;;;;;5045074;28;20235;-58
2023/07/01 07:59:07;;;;;;;0.70;0.70;;;;;;;;;;5045366;28;20218;-58
2023/07/01 08:01:34;;;;;;;0.88;0.88;;;;;;;;;;5047089;28;20200;-59
2023/07/01 08:04:02;;;;;;;1.08;1.00;;;;;;;;;;5046097;28;20227;-58
2023/07/01 08:06:29;;;;;;;1.35;0.93;;;;;;;;;;5041044;28;20358;-59
2023/07/01 08:08:57;;;;;;;0.63;0.63;;;;;;;;;;5044552;28;20203;-56
2023/07/01 08:11:24;;;;;;;1.15;0.90;;;;;;;;;;5035463;28;20204;-56
2023/07/01 08:13:51;;;;;;;3.65;1.15;;;;;;;;;;5027470;28;20216;-56
2023/07/01 08:16:18;;;;;;;6.28;1.10;;;;;;;;;;5042235;28;20200;-58
2023/07/01 08:18:45;;;;;;;1.48;1.38;;;;;;;;;;5026989;28;20212;-59
2023/07/01 08:21:27;;;;;;;0.80;0.80;;;;;;;;;;5044420;28;20200;-59
2023/07/01 08:23:56;;;;;;;1.38;1.05;;;;;;;;;;5045854;28;20508;-57
2023/07/01 08:26:23;;;;;;;0.68;0.68;;;;;;;;;;5040203;28;20661;-56
2023/07/01 08:28:50;;;;;;;0.77;0.68;;;;;;;;;;5047176;28;20677;-56
2023/07/01 08:31:18;;;;;;;2.72;0.95;;;;;;;;;;5046098;28;20208;-56
2023/07/01 08:33:45;;;;;;;1.27;0.68;;;;;;;;;;5043722;28;20210;-56
2023/07/01 08:36:12;;;;;;;1.00;1.00;;;;;;;;;;5046644;28;20661;-57
2023/07/01 08:38:39;;;;;;;0.73;0.73;;;;;;;;;;5046707;28;20214;-58
2023/07/01 08:41:09;;;;;;;0.80;0.80;;;;;;;;;;5044479;28;20203;-58
2023/07/01 08:43:36;;;;;;;1.15;0.70;;;;;;;;;;5031393;28;20220;-57
2023/07/01 08:46:04;;;;;;;0.50;0.50;;;;;;;;;;5035639;28;20224;-57
2023/07/01 08:48:33;;;;;;;0.50;0.50;;;;;;;;;;5038206;28;20809;-58
2023/07/01 08:51:02;;;;;;;2.42;0.63;;;;;;;;;;5044519;28;20632;-57
2023/07/01 08:53:29;;;;;;;1.55;0.52;;;;;;;;;;5041040;28;20843;-58
2023/07/01 08:55:57;;;;;;;1.17;0.70;;;;;;;;;;5039866;28;20307;-58
2023/07/01 08:58:25;;;;;;;0.50;0.50;;;;;;;;;;5038709;28;20211;-58
2023/07/01 09:00:55;;;;;;;0.93;0.60;;;;;;;;;;5042745;28;20250;-57
2023/07/01 09:03:23;;;;;;;0.70;0.70;;;;;;;;;;5044490;28;20247;-58
2023/07/01 09:05:50;;;;;;;1.10;0.60;;;;;;;;;;5044793;28;20893;-57
2023/07/01 09:08:17;;;;;;;0.50;0.50;;;;;;;;;;5045435;28;20204;-58
2023/07/01 09:10:44;;;;;;;0.82;0.45;;;;;;;;;;5045091;28;20605;-58
2023/07/01 09:13:11;;;;;;;2.50;0.52;;;;;;;;;;5046615;28;20313;-59
2023/07/01 09:15:46;;;;;;;0.40;0.40;;;;;;;;;;5046352;28;20196;-57
2023/07/01 09:18:20;;;;;;;0.70;0.70;;;;;;;;;;5045690;28;20207;-58
2023/07/01 09:20:49;;;;;;;0.68;0.68;;;;;;;;;;5050745;28;20245;-57
2023/07/01 09:23:26;;;;;;;2.42;0.47;;;;;;;;;;5050664;28;20331;-58
2023/07/01 09:25:53;;;;;;;0.70;0.70;;;;;;;;;;5043762;28;20683;-57
2023/07/01 09:28:31;;;;;;;0.50;0.50;;;;;;;;;;5045850;28;20729;-58
2023/07/01 09:31:01;;;;;;;0.60;0.60;;;;;;;;;;5049951;28;20224;-58
2023/07/01 09:33:29;;;;;;;2.03;0.57;;;;;;;;;;5041298;28;20203;-58
2023/07/01 09:36:00;;;;;;;0.95;0.52;;;;;;;;;;5039583;28;20582;-57
2023/07/01 09:38:28;;;;;;;0.47;0.47;;;;;;;;;;5049090;28;20686;-62
2023/07/01 09:40:55;;;;;;;0.43;0.43;;;;;;;;;;5032367;28;20219;-62
2023/07/01 09:43:32;;;;;;;0.57;0.57;;;;;;;;;;5030200;28;20228;-61
2023/07/01 09:45:59;;;;;;;0.50;0.50;;;;;;;;;;5031741;28;20283;-62
2023/07/01 09:48:27;;;;;;;0.60;0.55;;;;;;;;;;5037218;28;20205;-61
2023/07/01 09:51:01;;;;;;;0.45;0.45;;;;;;;;;;5041233;28;20215;-62
2023/07/01 09:53:31;;;;;;;0.60;0.50;;;;;;;;;;5049227;28;20204;-61
2023/07/01 09:55:58;;;;;;;0.47;0.40;;;;;;;;;;5035665;28;20200;-61
2023/07/01 09:58:25;;;;;;;0.52;0.52;;;;;;;;;;5029994;28;20208;-61
2023/07/01 10:00:52;;;;;;;1.88;0.60;;;;;;;;;;5036162;28;20292;-62
2023/07/01 10:03:19;;;;;;;0.50;0.50;;;;;;;;;;5049386;28;20212;-61
2023/07/01 10:05:48;;;;;;;0.50;0.50;;;;;;;;;;5033614;28;20232;-61
2023/07/01 10:08:15;;;;;;;2.63;0.73;;;;;;;;;;5043147;28;20266;-61
2023/07/01 10:10:42;;;;;;;1.75;0.50;;;;;;;;;;5043333;28;20212;-61
2023/07/01 10:13:10;;;;;;;0.55;0.55;;;;;;;;;;5041474;28;20211;-61
2023/07/01 10:15:38;;;;;;;0.52;0.50;;;;;;;;;;5041025;28;20211;-62
2023/07/01 10:18:20;;;;;;;0.50;0.50;;;;;;;;;;5042798;28;20290;-61
2023/07/01 10:20:49;;;;;;;0.68;0.60;;;;;;;;;;5035325;28;20246;-62
2023/07/01 10:23:16;;;;;;;0.70;0.68;;;;;;;;;;5037862;28;20322;-61
2023/07/01 10:25:43;;;;;;;2.22;0.50;;;;;;;;;;5032975;28;20725;-61
2023/07/01 10:28:11;;;;;;;2.05;0.60;;;;;;;;;;5032470;28;20662;-61
2023/07/01 10:30:56;;;;;;;0.60;0.60;;;;;;;;;;5026154;28;20209;-62
2023/07/01 10:33:47;;;;;;;0.50;0.50;;;;;;;;;;5033594;28;20692;-62
2023/07/01 10:36:17;;;;;;;0.60;0.60;;;;;;;;;;5044606;28;20211;-62
2023/07/01 10:38:44;;;;;;;0.50;0.50;;;;;;;;;;5048649;28;20279;-62
2023/07/01 10:41:11;;;;;;;0.47;0.47;;;;;;;;;;5041141;28;20215;-61
2023/07/01 10:43:38;;;;;;;0.70;0.70;;;;;;;;;;5044066;28;20228;-63
2023/07/01 10:46:10;;;;;;;1.27;0.55;;;;;;;;;;5043528;28;20223;-61
2023/07/01 10:48:38;;;;;;;0.77;0.75;;;;;;;;;;5046993;28;20239;-62
2023/07/01 10:51:05;;;;;;;0.57;0.57;;;;;;;;;;5042359;28;20693;-61
2023/07/01 10:53:54;;;;;;;1.75;0.75;;;;;;;;;;5046286;28;20200;-61
2023/07/01 10:56:21;;;;;;;0.70;0.70;;;;;;;;;;5046033;28;20231;-61
2023/07/01 10:59:08;;;;;;;0.60;0.60;;;;;;;;;;5046619;28;20254;-61
2023/07/01 11:01:45;;;;;;;0.50;0.50;;;;;;;;;;5045062;28;20214;-61
2023/07/01 11:04:12;;;;;;;0.75;0.73;;;;;;;;;;5037564;28;20680;-60
2023/07/01 11:06:49;;;;;;;0.55;0.50;;;;;;;;;;5043462;28;20645;-59
2023/07/01 11:09:27;;;;;;;0.70;0.70;;;;;;;;;;5046807;28;20440;-58
2023/07/01 11:11:54;;;;;;;0.73;0.73;;;;;;;;;;5047211;28;20322;-58
2023/07/01 11:14:22;;;;;;;0.70;0.70;;;;;;;;;;5042702;28;20218;-58
2023/07/01 11:16:49;;;;;;;0.73;0.63;;;;;;;;;;5046583;28;20551;-59
2023/07/01 11:19:17;;;;;;;0.70;0.70;;;;;;;;;;5047169;28;20213;-59
2023/07/01 11:21:44;;;;;;;1.67;0.73;;;;;;;;;;5047590;28;20243;-57
2023/07/01 11:24:11;;;;;;;1.00;0.75;;;;;;;;;;5047427;28;20212;-56
2023/07/01 11:26:41;;;;;;;0.70;0.70;;;;;;;;;;5043303;28;20220;-57
2023/07/01 11:29:10;;;;;;;0.60;0.60;;;;;;;;;;5043202;28;20203;-57
2023/07/01 11:31:37;;;;;;;0.70;0.70;;;;;;;;;;5046046;28;20223;-57
2023/07/01 11:34:04;;;;;;;1.95;0.60;;;;;;;;;;5044731;28;20278;-59
2023/07/01 11:36:36;;;;;;;3.03;0.65;;;;;;;;;;5045341;28;20225;-56
2023/07/01 11:39:09;;;;;;;0.85;0.43;;;;;;;;;;5044245;28;20870;-57
2023/07/01 11:41:37;;;;;;;1.50;0.60;;;;;;;;;;5041410;28;20211;-54
2023/07/01 11:44:07;;;;;;;3.10;0.60;;;;;;;;;;5045864;28;20247;-58
2023/07/01 11:46:35;;;;;;;0.45;0.45;;;;;;;;;;5039927;28;20220;-57
2023/07/01 11:49:12;;;;;;;0.60;0.60;;;;;;;;;;5039719;28;20653;-57
2023/07/01 11:51:39;;;;;;;0.70;0.70;;;;;;;;;;5045127;28;20203;-56
2023/07/01 11:54:06;;;;;;;0.57;0.57;;;;;;;;;;5045059;28;20205;-57
2023/07/01 11:56:33;;;;;;;0.73;0.73;;;;;;;;;;5044755;28;20196;-57
2023/07/01 11:59:00;;;;;;;0.70;0.70;;;;;;;;;;5043002;28;20234;-57
2023/07/01 12:01:29;;;;;;;0.57;0.57;;;;;;;;;;5044600;28;20202;-57
2023/07/01 12:03:56;;;;;;;0.70;0.70;;;;;;;;;;5043743;28;20208;-57
2023/07/01 12:06:24;;;;;;;0.50;0.50;;;;;;;;;;5040712;28;20247;-56
2023/07/01 12:08:52;;;;;;;0.50;0.50;;;;;;;;;;5042807;28;20556;-56
2023/07/01 12:11:19;;;;;;;0.90;0.90;;;;;;;;;;5034436;28;20208;-57
2023/07/01 12:13:46;;;;;;;0.68;0.60;;;;;;;;;;5044425;28;20277;-56
2023/07/01 12:16:13;;;;;;;0.70;0.70;;;;;;;;;;5040651;28;20197;-56
2023/07/01 12:18:41;;;;;;;1.10;0.70;;;;;;;;;;5034746;28;20905;-56
2023/07/01 12:21:08;;;;;;;1.48;0.80;;;;;;;;;;5041840;28;20199;-57
2023/07/01 12:23:45;;;;;;;1.25;0.82;;;;;;;;;;5043552;28;20215;-57
2023/07/01 12:26:12;;;;;;;0.60;0.60;;;;;;;;;;5044964;28;20739;-57
2023/07/01 12:28:40;;;;;;;1.75;0.60;;;;;;;;;;5045089;28;20216;-58
2023/07/01 12:31:07;;;;;;;0.80;0.80;;;;;;;;;;5035755;28;20586;-56
2023/07/01 12:33:34;;;;;;;0.82;0.82;;;;;;;;;;5043268;28;20207;-57
2023/07/01 12:36:03;;;;;;;0.95;0.60;;;;;;;;;;5039805;28;20709;-57
2023/07/01 12:38:30;;;;;;;0.57;0.50;;;;;;;;;;5045303;28;20200;-57
2023/07/01 12:40:58;;;;;;;1.65;0.50;;;;;;;;;;5043802;28;20234;-57
2023/07/01 12:43:27;;;;;;;1.17;0.60;;;;;;;;;;5007652;28;1022906;-57
2023/07/01 12:45:55;;;;;;;0.80;0.80;;;;;;;;;;5036250;28;20220;-57
2023/07/01 12:48:23;;;;;;;0.70;0.70;;;;;;;;;;5043838;28;20674;-57
2023/07/01 12:50:50;;;;;;;2.45;0.98;;;;;;;;;;5041403;28;20307;-57
2023/07/01 12:53:18;;;;;;;0.60;0.60;;;;;;;;;;5044480;28;20246;-57
2023/07/01 12:55:49;;;;;;;0.70;0.70;;;;;;;;;;5045255;28;20219;-57
2023/07/01 12:58:16;;;;;;;0.70;0.70;;;;;;;;;;5045327;28;20319;-57
2023/07/01 13:00:43;;;;;;;0.70;0.70;;;;;;;;;;5038639;28;20215;-57
2023/07/01 13:03:10;;;;;;;1.00;0.70;;;;;;;;;;5040228;28;20231;-61
2023/07/01 13:05:37;;;;;;;0.68;0.68;;;;;;;;;;5044585;28;20285;-62
2023/07/01 13:08:05;;;;;;;0.73;0.73;;;;;;;;;;5044441;28;20685;-62
2023/07/01 13:10:38;;;;;;;0.60;0.60;;;;;;;;;;5045221;28;20203;-62
2023/07/01 13:13:05;;;;;;;0.50;0.50;;;;;;;;;;5046116;28;20207;-58
2023/07/01 13:15:33;;;;;;;0.82;0.75;;;;;;;;;;5045783;28;20215;-57
2023/07/01 13:18:00;;;;;;;0.90;0.60;;;;;;;;;;5046311;28;20300;-60
2023/07/01 13:20:28;;;;;;;0.75;0.75;;;;;;;;;;5045561;28;20211;-57
2023/07/01 13:22:56;;;;;;;0.50;0.50;;;;;;;;;;5046568;28;20223;-57
2023/07/01 13:25:25;;;;;;;0.80;0.80;;;;;;;;;;5042404;28;20295;-57
2023/07/01 13:27:54;;;;;;;1.17;0.50;;;;;;;;;;5046501;28;20231;-60
2023/07/01 13:30:32;;;;;;;1.73;0.80;;;;;;;;;;5043500;28;20214;-61
2023/07/01 13:33:02;;;;;;;1.67;0.75;;;;;;;;;;5038656;28;20648;-62
2023/07/01 13:35:29;;;;;;;0.63;0.50;;;;;;;;;;5036712;28;20658;-62
2023/07/01 13:38:04;;;;;;;0.70;0.70;;;;;;;;;;5030843;28;20673;-62
2023/07/01 13:40:31;;;;;;;1.23;0.60;;;;;;;;;;5045805;28;20301;-61
2023/07/01 13:42:59;;;;;;;165.07;34.00;;;;;;;;;;5045411;28;20223;-61
2023/07/01 13:45:28;;;;;;;623.45;171.77;;;;;;;;;;5045294;28;20240;-61
2023/07/01 13:47:55;;;;;;;88.22;18.90;;;;;;;;;;5045204;28;20231;-61
2023/07/01 13:50:24;;;;;;;93.32;17.75;;;;;;;;;;5042346;28;20211;-62
2023/07/01 13:52:51;;;;;;;103.20;17.48;;;;;;;;;;5041296;28;20217;-62
2023/07/01 13:55:19;;;;;;;93.97;18.88;;;;;;;;;;5036024;28;20610;-62
2023/07/01 13:57:47;;;;;;;31.55;8.82;;;;;;;;;;5045794;28;20277;-61
2023/07/01 14:00:23;;;;;;;37.15;8.77;;;;;;;;;;5045802;28;20269;-62
2023/07/01 14:02:50;;;;;;;32.90;8.63;;;;;;;;;;5045040;28;20807;-63
2023/07/01 14:05:17;;;;;;;19.05;4.72;;;;;;;;;;5041677;28;20208;-58
2023/07/01 14:07:44;;;;;;;21.35;4.95;;;;;;;;;;5035985;28;20837;-58
2023/07/01 14:10:23;;;;;;;26.58;5.50;;;;;;;;;;5033173;28;20219;-58
2023/07/01 14:12:50;;;;;;;6.75;2.38;;;;;;;;;;5027061;28;20219;-58
2023/07/01 14:15:26;;;;;;;13.93;3.35;;;;;;;;;;5046913;28;20203;-58
2023/07/01 14:17:53;;;;;;;23.00;5.18;;;;;;;;;;5049117;28;20662;-57
2023/07/01 14:20:21;;;;;;;4.82;1.67;;;;;;;;;;5048659;28;20219;-57
2023/07/01 14:22:48;;;;;;;3.38;1.88;;;;;;;;;;5048842;28;20641;-56
2023/07/01 14:25:22;;;;;;;4.93;1.80;;;;;;;;;;5044193;28;20208;-57
2023/07/01 14:27:49;;;;;;;2.40;1.02;;;;;;;;;;5033274;28;20646;-57
2023/07/01 14:30:27;;;;;;;1.23;1.13;;;;;;;;;;5041715;28;20227;-57
2023/07/01 14:32:56;;;;;;;0.98;0.95;;;;;;;;;;5048881;28;20234;-58
2023/07/01 14:35:23;;;;;;;0.95;0.95;;;;;;;;;;5046670;28;20211;-58
2023/07/01 14:37:50;;;;;;;1.35;0.80;;;;;;;;;;5046237;28;20215;-57
2023/07/01 14:40:17;;;;;;;0.70;0.70;;;;;;;;;;5045737;28;20357;-57
2023/07/01 14:42:44;;;;;;;0.95;0.95;;;;;;;;;;5047429;28;20238;-58
2023/07/01 14:45:15;;;;;;;0.82;0.80;;;;;;;;;;5043252;28;20236;-57
2023/07/01 14:47:42;;;;;;;0.65;0.65;;;;;;;;;;5037381;28;20223;-57
2023/07/01 14:50:10;;;;;;;2.72;0.85;;;;;;;;;;5046777;28;20204;-57